createdAt,value
2017-11-30T00:00:08.707Z,2.23
2017-11-30T00:01:13.156Z,2.19
2017-11-30T00:02:18.007Z,2.19
2017-11-30T00:03:22.302Z,2.19
2017-11-30T00:04:26.492Z,2.17
2017-11-30T00:05:30.883Z,2.13
2017-11-30T00:06:35.028Z,2.10
2017-11-30T00:07:39.270Z,2.09
2017-11-30T00:08:43.525Z,2.18
2017-11-30T00:09:48.026Z,2.14
2017-11-30T00:10:52.215Z,2.12
2017-11-30T00:11:56.402Z,2.14
2017-11-30T00:13:00.604Z,2.15
2017-11-30T00:14:04.714Z,2.26
2017-11-30T00:15:09.126Z,2.32
2017-11-30T00:16:13.845Z,2.26
2017-11-30T00:17:19.017Z,2.24
2017-11-30T00:18:23.192Z,2.15
2017-11-30T00:19:27.419Z,2.19
2017-11-30T00:20:31.635Z,2.19
2017-11-30T00:21:35.763Z,2.21
2017-11-30T00:22:40.548Z,2.29
2017-11-30T00:23:44.760Z,2.26
2017-11-30T00:24:48.916Z,2.26
2017-11-30T00:25:53.491Z,2.22
2017-11-30T00:26:57.654Z,2.26
2017-11-30T00:28:02.612Z,2.21
2017-11-30T00:29:06.800Z,2.17
2017-11-30T00:30:13.088Z,2.34
2017-11-30T00:31:17.255Z,2.26
2017-11-30T00:32:21.435Z,2.30
2017-11-30T00:33:25.706Z,2.31
2017-11-30T00:34:29.796Z,2.25
2017-11-30T00:35:34.022Z,2.25
2017-11-30T00:36:38.168Z,2.28
2017-11-30T00:37:42.440Z,2.30
2017-11-30T00:38:46.645Z,2.37
2017-11-30T00:39:50.795Z,2.51
2017-11-30T00:40:54.970Z,2.45
2017-11-30T00:41:59.182Z,2.43
2017-11-30T00:43:34.057Z,2.65
2017-11-30T00:44:45.423Z,2.68
2017-11-30T00:45:49.738Z,2.67
2017-11-30T00:46:53.965Z,2.74
2017-11-30T00:47:58.196Z,2.79
2017-11-30T00:49:03.139Z,2.85
2017-11-30T00:50:07.247Z,2.79
2017-11-30T00:51:11.727Z,2.67
2017-11-30T00:52:16.033Z,2.69
2017-11-30T00:53:20.230Z,2.85
2017-11-30T00:54:25.337Z,2.71
2017-11-30T00:55:29.547Z,2.60
2017-11-30T00:56:33.713Z,2.54
2017-11-30T00:57:38.214Z,2.70
2017-11-30T00:58:42.354Z,2.71
2017-11-30T00:59:46.516Z,2.68
2017-11-30T01:00:51.032Z,2.71
2017-11-30T01:01:55.269Z,2.56
2017-11-30T01:02:59.671Z,2.42
2017-11-30T01:04:04.381Z,2.37
2017-11-30T01:05:08.590Z,2.37
2017-11-30T01:06:12.828Z,2.42
2017-11-30T01:07:17.134Z,2.48
2017-11-30T01:08:21.273Z,2.47
2017-11-30T01:09:26.255Z,2.38
2017-11-30T01:10:30.815Z,2.33
2017-11-30T01:11:34.918Z,2.40
2017-11-30T01:12:39.163Z,2.43
2017-11-30T01:13:43.260Z,2.47
2017-11-30T01:14:47.402Z,2.54
2017-11-30T01:15:51.819Z,2.47
2017-11-30T01:16:56.801Z,2.49
2017-11-30T01:18:00.891Z,2.59
2017-11-30T01:19:05.706Z,2.62
2017-11-30T01:20:09.838Z,2.57
2017-11-30T01:21:22.710Z,2.56
2017-11-30T01:22:26.869Z,2.66
2017-11-30T01:23:31.364Z,2.68
2017-11-30T01:24:35.566Z,2.68
2017-11-30T01:25:39.734Z,2.55
2017-11-30T01:26:43.858Z,2.64
2017-11-30T01:27:48.014Z,2.75
2017-11-30T01:28:52.452Z,2.61
2017-11-30T01:29:57.230Z,2.42
2017-11-30T01:31:01.806Z,2.37
2017-11-30T01:32:06.403Z,2.53
2017-11-30T01:33:10.565Z,2.47
2017-11-30T01:34:14.791Z,2.42
2017-11-30T01:35:19.319Z,2.39
2017-11-30T01:36:23.661Z,2.35
2017-11-30T01:37:27.890Z,2.40
2017-11-30T01:38:32.024Z,2.42
2017-11-30T01:39:36.180Z,2.58
2017-11-30T01:40:40.329Z,2.66
2017-11-30T01:41:44.883Z,2.65
2017-11-30T01:42:49.013Z,2.67
2017-11-30T01:43:53.323Z,2.68
2017-11-30T01:44:57.551Z,2.69
2017-11-30T01:46:02.512Z,2.66
2017-11-30T01:47:06.700Z,2.63
2017-11-30T01:48:11.151Z,2.61
2017-11-30T01:49:15.376Z,2.51
2017-11-30T01:50:19.509Z,2.44
2017-11-30T01:51:23.854Z,2.62
2017-11-30T01:52:28.033Z,2.53
2017-11-30T01:53:36.722Z,2.60
2017-11-30T01:54:41.158Z,2.69
2017-11-30T01:55:45.362Z,2.74
2017-11-30T01:56:49.579Z,2.77
2017-11-30T01:57:53.755Z,2.78
2017-11-30T01:58:57.994Z,2.68
2017-11-30T02:00:05.300Z,2.48
2017-11-30T02:01:09.882Z,2.44
2017-11-30T02:02:14.249Z,2.39
2017-11-30T02:03:18.463Z,2.51
2017-11-30T02:04:22.784Z,2.53
2017-11-30T02:05:27.802Z,2.46
2017-11-30T02:06:31.997Z,2.50
2017-11-30T02:07:36.973Z,2.41
2017-11-30T02:08:41.312Z,2.41
2017-11-30T02:09:45.519Z,2.35
2017-11-30T02:10:49.621Z,2.31
2017-11-30T02:11:54.146Z,2.34
2017-11-30T02:12:58.494Z,2.39
2017-11-30T02:14:02.618Z,2.43
2017-11-30T02:15:07.644Z,2.49
2017-11-30T02:17:47.965Z,2.50
2017-11-30T02:18:52.071Z,2.57
2017-11-30T02:19:56.445Z,2.51
2017-11-30T02:21:00.744Z,2.49
2017-11-30T02:22:05.318Z,2.51
2017-11-30T02:23:09.461Z,2.46
2017-11-30T02:24:13.597Z,2.53
2017-11-30T02:25:17.882Z,2.53
2017-11-30T02:26:22.251Z,2.49
2017-11-30T02:27:27.366Z,2.45
2017-11-30T02:28:31.507Z,2.47
2017-11-30T02:29:35.754Z,2.57
2017-11-30T02:30:40.357Z,2.60
2017-11-30T02:31:44.902Z,2.48
2017-11-30T02:32:49.199Z,2.39
2017-11-30T02:33:53.631Z,2.39
2017-11-30T02:34:57.928Z,2.33
2017-11-30T02:36:03.417Z,2.45
2017-11-30T02:37:07.707Z,2.41
2017-11-30T02:38:11.894Z,2.41
2017-11-30T02:39:16.029Z,2.39
2017-11-30T02:40:20.298Z,2.42
2017-11-30T02:41:25.274Z,2.39
2017-11-30T02:42:29.795Z,2.39
2017-11-30T02:43:34.011Z,2.37
2017-11-30T02:44:38.178Z,2.42
2017-11-30T02:45:42.414Z,2.44
2017-11-30T02:46:46.759Z,2.49
2017-11-30T03:00:22.621Z,2.40
2017-11-30T03:01:27.588Z,2.35
2017-11-30T03:02:38.149Z,2.32
2017-11-30T03:03:42.806Z,2.30
2017-11-30T03:04:47.837Z,2.27
2017-11-30T03:05:52.030Z,2.29
2017-11-30T03:06:56.287Z,2.28
2017-11-30T03:08:00.451Z,2.28
2017-11-30T03:09:05.962Z,2.29
2017-11-30T03:10:10.566Z,2.27
2017-11-30T03:23:55.007Z,2.33
2017-11-30T03:24:59.315Z,2.28
2017-11-30T03:26:04.473Z,2.22
2017-11-30T03:27:08.637Z,2.21
2017-11-30T03:28:13.030Z,2.21
2017-11-30T03:29:17.262Z,2.19
2017-11-30T03:30:21.417Z,2.13
2017-11-30T03:31:26.190Z,2.16
2017-11-30T03:32:30.367Z,2.12
2017-11-30T03:33:34.557Z,2.13
2017-11-30T03:34:39.030Z,2.13
2017-11-30T03:35:43.143Z,2.13
2017-11-30T03:36:47.277Z,2.15
2017-11-30T03:37:51.408Z,2.18
2017-11-30T03:38:55.567Z,2.19
2017-11-30T03:39:59.824Z,2.17
2017-11-30T03:41:05.801Z,2.12
2017-11-30T03:42:11.339Z,2.12
2017-11-30T03:43:15.455Z,2.18
2017-11-30T03:44:19.619Z,2.24
2017-11-30T03:45:24.072Z,2.32
2017-11-30T03:46:28.538Z,2.33
2017-11-30T03:47:32.848Z,2.30
2017-11-30T03:48:37.063Z,2.32
2017-11-30T03:49:41.176Z,2.37
2017-11-30T03:50:45.289Z,2.33
2017-11-30T03:51:49.447Z,2.42
2017-11-30T03:52:54.035Z,2.39
2017-11-30T03:53:58.131Z,2.32
2017-11-30T03:55:02.632Z,2.25
2017-11-30T03:56:06.766Z,2.29
2017-11-30T03:57:10.902Z,2.31
2017-11-30T03:58:15.426Z,2.43
2017-11-30T03:59:20.087Z,2.53
2017-11-30T04:00:25.464Z,2.43
2017-11-30T04:01:29.618Z,2.45
2017-11-30T04:02:33.719Z,2.43
2017-11-30T04:03:37.918Z,2.40
2017-11-30T04:04:42.477Z,2.35
2017-11-30T04:05:46.594Z,2.38
2017-11-30T04:06:50.714Z,2.45
2017-11-30T04:07:55.004Z,2.76
2017-11-30T04:08:59.133Z,2.64
2017-11-30T04:10:04.192Z,2.50
2017-11-30T04:11:08.636Z,2.48
2017-11-30T04:12:12.790Z,2.50
2017-11-30T04:13:17.109Z,2.41
2017-11-30T04:14:21.221Z,2.47
2017-11-30T04:15:26.489Z,2.48
2017-11-30T04:16:30.718Z,2.53
2017-11-30T04:17:35.141Z,2.57
2017-11-30T04:18:39.380Z,2.54
2017-11-30T04:19:43.510Z,2.67
2017-11-30T04:20:47.621Z,2.75
2017-11-30T04:21:52.080Z,2.64
2017-11-30T04:22:56.645Z,2.59
2017-11-30T04:24:01.238Z,2.58
2017-11-30T04:25:06.204Z,2.52
2017-11-30T04:26:10.344Z,2.59
2017-11-30T04:27:14.519Z,2.60
2017-11-30T04:28:18.702Z,2.57
2017-11-30T04:29:22.949Z,2.49
2017-11-30T04:30:27.743Z,2.63
2017-11-30T04:31:31.820Z,2.66
2017-11-30T04:32:36.222Z,2.61
2017-11-30T04:33:40.652Z,2.71
2017-11-30T04:34:44.823Z,2.61
2017-11-30T04:35:49.007Z,2.63
2017-11-30T04:36:53.502Z,2.59
2017-11-30T04:37:57.773Z,2.55
2017-11-30T04:39:01.926Z,2.57
2017-11-30T04:40:06.115Z,2.51
2017-11-30T04:41:10.343Z,2.44
2017-11-30T04:42:14.505Z,2.53
2017-11-30T04:43:18.944Z,2.53
2017-11-30T04:44:23.146Z,2.67
2017-11-30T04:45:27.671Z,2.60
2017-11-30T04:46:31.788Z,2.54
2017-11-30T04:47:35.903Z,2.85
2017-11-30T04:48:40.035Z,2.89
2017-11-30T04:49:44.590Z,2.81
2017-11-30T04:50:48.744Z,2.76
2017-11-30T04:51:53.091Z,2.66
2017-11-30T04:52:57.238Z,2.64
2017-11-30T04:54:01.982Z,2.76
2017-11-30T04:55:06.455Z,2.79
2017-11-30T04:56:10.675Z,2.65
2017-11-30T04:57:14.890Z,2.63
2017-11-30T04:58:19.077Z,2.57
2017-11-30T04:59:23.319Z,2.59
2017-11-30T05:00:27.920Z,2.57
2017-11-30T05:01:32.398Z,2.60
2017-11-30T05:02:36.569Z,2.58
2017-11-30T05:03:40.905Z,2.67
2017-11-30T05:04:45.139Z,2.74
2017-11-30T05:05:49.311Z,2.69
2017-11-30T05:06:53.496Z,2.57
2017-11-30T05:07:57.972Z,2.56
2017-11-30T05:09:02.837Z,2.53
2017-11-30T05:10:06.961Z,2.51
2017-11-30T05:11:11.198Z,2.51
2017-11-30T05:12:15.368Z,2.55
2017-11-30T05:13:19.668Z,2.60
2017-11-30T05:14:24.537Z,2.62
2017-11-30T05:15:28.961Z,2.55
2017-11-30T05:16:33.305Z,2.59
2017-11-30T05:17:37.484Z,2.55
2017-11-30T05:18:41.588Z,2.61
2017-11-30T05:19:45.794Z,2.60
2017-11-30T05:20:50.243Z,2.59
2017-11-30T05:21:54.528Z,2.78
2017-11-30T05:22:58.701Z,2.82
2017-11-30T05:24:02.912Z,2.73
2017-11-30T05:25:07.133Z,2.67
2017-11-30T05:26:11.310Z,2.61
2017-11-30T05:27:15.905Z,2.60
2017-11-30T05:28:20.144Z,2.56
2017-11-30T05:29:24.274Z,2.59
2017-11-30T05:30:28.527Z,2.64
2017-11-30T05:31:32.653Z,2.67
2017-11-30T05:32:36.798Z,2.88
2017-11-30T05:33:41.303Z,2.90
2017-11-30T05:34:45.552Z,2.84
2017-11-30T05:35:49.746Z,2.76
2017-11-30T05:36:53.953Z,2.91
2017-11-30T05:37:58.127Z,3.11
2017-11-30T05:39:02.288Z,3.36
2017-11-30T05:40:06.807Z,3.24
2017-11-30T05:41:10.977Z,3.11
2017-11-30T05:42:15.169Z,2.98
2017-11-30T05:43:19.344Z,3.03
2017-11-30T05:44:23.579Z,3.25
2017-11-30T05:45:29.149Z,3.28
2017-11-30T05:46:34.016Z,3.09
2017-11-30T05:47:38.247Z,3.15
2017-11-30T05:48:42.377Z,3.23
2017-11-30T05:49:46.536Z,3.23
2017-11-30T05:50:50.687Z,3.42
2017-11-30T05:51:56.225Z,3.20
2017-11-30T05:53:00.870Z,3.32
2017-11-30T05:54:05.001Z,3.36
2017-11-30T05:55:09.250Z,3.23
2017-11-30T05:56:13.385Z,3.12
2017-11-30T05:57:17.569Z,3.13
2017-11-30T05:58:22.112Z,3.14
2017-11-30T05:59:26.361Z,3.21
2017-11-30T06:00:31.821Z,3.28
2017-11-30T06:01:35.987Z,3.21
2017-11-30T06:02:40.278Z,3.30
2017-11-30T06:03:44.530Z,3.27
2017-11-30T06:04:48.816Z,3.12
2017-11-30T06:05:53.044Z,3.19
2017-11-30T06:06:57.302Z,3.23
2017-11-30T06:08:01.490Z,3.39
2017-11-30T06:09:05.760Z,3.30
2017-11-30T06:10:09.928Z,3.32
2017-11-30T06:11:14.416Z,3.37
2017-11-30T06:12:18.644Z,3.34
2017-11-30T06:13:22.765Z,3.18
2017-11-30T06:14:26.986Z,3.17
2017-11-30T06:15:32.012Z,2.92
2017-11-30T06:16:36.203Z,2.84
2017-11-30T06:17:40.421Z,2.90
2017-11-30T06:18:44.593Z,3.21
2017-11-30T06:19:48.726Z,3.42
2017-11-30T06:20:53.004Z,3.35
2017-11-30T06:21:57.206Z,3.19
2017-11-30T06:23:02.673Z,3.22
2017-11-30T06:24:06.814Z,3.19
2017-11-30T06:25:11.059Z,3.19
2017-11-30T06:26:15.201Z,3.18
2017-11-30T06:27:19.281Z,3.09
2017-11-30T06:28:23.562Z,3.01
2017-11-30T06:29:27.999Z,3.07
2017-11-30T06:30:33.543Z,3.24
2017-11-30T06:31:37.660Z,3.23
2017-11-30T06:32:41.766Z,3.17
2017-11-30T06:33:46.005Z,3.08
2017-11-30T06:34:50.437Z,3.05
2017-11-30T06:35:54.767Z,3.17
2017-11-30T06:36:59.662Z,3.29
2017-11-30T06:38:04.869Z,3.42
2017-11-30T06:39:09.073Z,3.43
2017-11-30T06:40:13.349Z,3.38
2017-11-30T06:41:17.954Z,3.19
2017-11-30T06:42:22.174Z,3.05
2017-11-30T06:43:26.426Z,3.17
2017-11-30T06:44:30.842Z,3.02
2017-11-30T06:45:36.046Z,3.01
2017-11-30T06:46:40.469Z,3.11
2017-11-30T06:47:45.174Z,3.25
2017-11-30T06:48:49.642Z,3.11
2017-11-30T06:49:54.077Z,3.20
2017-11-30T06:50:58.311Z,3.40
2017-11-30T06:52:02.909Z,3.27
2017-11-30T06:53:07.242Z,3.40
2017-11-30T06:54:11.732Z,3.25
2017-11-30T06:55:15.862Z,3.20
2017-11-30T06:56:20.061Z,3.22
2017-11-30T06:57:24.347Z,3.33
2017-11-30T06:58:28.608Z,3.39
2017-11-30T06:59:32.735Z,3.27
2017-11-30T07:00:37.233Z,3.15
2017-11-30T07:01:41.546Z,3.30
2017-11-30T07:02:46.041Z,3.28
2017-11-30T07:03:50.285Z,3.31
2017-11-30T07:04:54.663Z,3.50
2017-11-30T07:05:58.836Z,3.31
2017-11-30T07:07:04.424Z,3.27
2017-11-30T07:08:08.689Z,3.29
2017-11-30T07:09:13.015Z,3.35
2017-11-30T07:10:17.168Z,3.37
2017-11-30T07:11:21.350Z,3.30
2017-11-30T07:12:25.797Z,3.37
2017-11-30T07:13:29.916Z,3.39
2017-11-30T07:14:34.823Z,3.31
2017-11-30T07:15:39.083Z,3.23
2017-11-30T07:16:43.253Z,3.07
2017-11-30T07:17:47.344Z,3.10
2017-11-30T07:18:51.876Z,3.15
2017-11-30T07:19:55.982Z,3.09
2017-11-30T07:21:00.142Z,3.12
2017-11-30T07:22:05.039Z,3.08
2017-11-30T07:23:09.176Z,3.03
2017-11-30T07:24:13.438Z,2.89
2017-11-30T07:25:17.615Z,2.96
2017-11-30T07:26:21.731Z,3.07
2017-11-30T07:27:26.122Z,3.06
2017-11-30T07:28:30.254Z,2.99
2017-11-30T07:29:34.479Z,2.89
2017-11-30T07:30:38.627Z,2.85
2017-11-30T07:31:42.769Z,2.96
2017-11-30T07:32:47.013Z,3.02
2017-11-30T07:33:51.214Z,2.94
2017-11-30T07:34:55.520Z,2.95
2017-11-30T07:35:59.763Z,2.94
2017-11-30T07:37:06.134Z,2.92
2017-11-30T07:38:10.275Z,2.89
2017-11-30T07:39:14.395Z,2.91
2017-11-30T07:40:18.727Z,3.05
2017-11-30T07:41:22.891Z,3.09
2017-11-30T07:42:27.055Z,3.43
2017-11-30T07:43:31.546Z,3.64
2017-11-30T07:44:35.710Z,3.83
2017-11-30T07:45:39.863Z,3.79
2017-11-30T07:46:44.034Z,3.61
2017-11-30T07:47:48.146Z,3.35
2017-11-30T07:48:52.414Z,3.14
2017-11-30T07:49:56.930Z,3.22
2017-11-30T07:51:01.135Z,3.47
2017-11-30T07:52:05.253Z,3.57
2017-11-30T07:53:09.346Z,3.69
2017-11-30T07:54:13.454Z,3.62
2017-11-30T07:55:17.755Z,3.48
2017-11-30T07:56:22.045Z,3.62
2017-11-30T07:57:26.198Z,3.62
2017-11-30T07:58:31.003Z,3.67
2017-11-30T07:59:35.164Z,3.57
2017-11-30T08:00:39.423Z,3.62
2017-11-30T08:01:43.519Z,3.56
2017-11-30T08:02:47.575Z,3.47
2017-11-30T08:03:51.695Z,3.28
2017-11-30T08:04:55.917Z,3.36
2017-11-30T08:06:00.959Z,3.31
2017-11-30T08:07:05.459Z,3.09
2017-11-30T08:08:09.663Z,3.22
2017-11-30T08:09:13.853Z,3.05
2017-11-30T08:10:17.977Z,3.06
2017-11-30T08:11:22.254Z,3.06
2017-11-30T08:12:26.463Z,3.00
2017-11-30T08:13:31.611Z,2.90
2017-11-30T08:14:35.794Z,2.98
2017-11-30T08:15:39.958Z,2.92
2017-11-30T08:16:44.175Z,2.92
2017-11-30T08:17:48.295Z,2.87
2017-11-30T08:18:52.485Z,3.07
2017-11-30T08:19:56.923Z,3.12
2017-11-30T08:21:02.127Z,3.13
2017-11-30T08:22:06.301Z,3.06
2017-11-30T08:23:10.432Z,3.04
2017-11-30T08:24:14.885Z,3.08
2017-11-30T08:25:19.102Z,3.13
2017-11-30T08:26:23.337Z,3.17
2017-11-30T08:27:27.609Z,3.07
2017-11-30T08:28:32.783Z,3.14
2017-11-30T08:29:37.031Z,3.12
2017-11-30T08:30:41.352Z,3.21
2017-11-30T08:31:46.059Z,3.22
2017-11-30T08:32:50.988Z,3.18
2017-11-30T08:33:55.162Z,3.30
2017-11-30T08:34:59.322Z,3.23
2017-11-30T08:36:04.571Z,3.13
2017-11-30T08:37:08.675Z,3.31
2017-11-30T08:38:12.973Z,3.34
2017-11-30T08:39:17.648Z,3.54
2017-11-30T08:40:21.806Z,3.63
2017-11-30T08:41:26.026Z,3.62
2017-11-30T08:42:30.135Z,3.63
2017-11-30T08:43:35.279Z,3.59
2017-11-30T08:44:39.605Z,3.69
2017-11-30T08:45:44.248Z,3.81
2017-11-30T08:46:48.446Z,3.71
2017-11-30T08:47:52.707Z,3.47
2017-11-30T08:48:56.830Z,3.59
2017-11-30T08:50:02.158Z,3.61
2017-11-30T08:51:07.226Z,3.78
2017-11-30T08:52:11.743Z,3.83
2017-11-30T08:53:15.933Z,3.73
2017-11-30T08:54:20.170Z,3.82
2017-11-30T08:55:24.468Z,3.98
2017-11-30T08:56:28.634Z,3.96
2017-11-30T08:57:33.217Z,4.00
2017-11-30T08:58:37.364Z,3.80
2017-11-30T08:59:41.568Z,3.98
2017-11-30T09:00:46.526Z,4.01
2017-11-30T09:01:51.082Z,3.91
2017-11-30T09:02:55.258Z,4.13
2017-11-30T09:03:59.873Z,4.26
2017-11-30T09:05:04.869Z,4.24
2017-11-30T09:06:09.258Z,4.04
2017-11-30T09:07:13.497Z,4.08
2017-11-30T09:08:17.670Z,4.08
2017-11-30T09:09:21.887Z,3.81
2017-11-30T09:10:26.480Z,3.84
2017-11-30T09:11:30.613Z,4.01
2017-11-30T09:12:34.794Z,3.93
2017-11-30T09:13:38.918Z,3.79
2017-11-30T09:14:43.115Z,3.83
2017-11-30T09:15:47.654Z,3.83
2017-11-30T09:16:51.822Z,3.96
2017-11-30T09:17:56.069Z,3.83
2017-11-30T09:19:00.361Z,3.89
2017-11-30T09:20:04.732Z,3.97
2017-11-30T09:21:09.029Z,3.98
2017-11-30T09:22:13.293Z,3.90
2017-11-30T09:23:17.462Z,3.98
2017-11-30T09:24:21.756Z,4.01
2017-11-30T09:25:25.890Z,3.93
2017-11-30T09:26:30.166Z,3.81
2017-11-30T09:27:34.486Z,3.88
2017-11-30T09:28:38.970Z,4.11
2017-11-30T09:29:43.098Z,4.09
2017-11-30T09:30:47.319Z,3.99
2017-11-30T09:31:51.867Z,4.00
2017-11-30T09:32:56.139Z,4.05
2017-11-30T09:34:00.326Z,3.93
2017-11-30T09:35:04.941Z,3.90
2017-11-30T09:36:09.171Z,3.93
2017-11-30T09:37:13.436Z,3.94
2017-11-30T09:38:17.599Z,3.81
2017-11-30T09:39:21.878Z,3.66
2017-11-30T09:40:26.076Z,3.58
2017-11-30T09:41:31.202Z,3.63
2017-11-30T09:42:35.437Z,3.63
2017-11-30T09:43:39.702Z,3.59
2017-11-30T09:44:43.870Z,3.64
2017-11-30T09:46:54.320Z,3.64
2017-11-30T09:49:13.463Z,3.96
2017-11-30T09:50:18.162Z,3.93
2017-11-30T09:51:22.419Z,3.83
2017-11-30T09:52:26.691Z,3.61
2017-11-30T09:53:30.825Z,3.69
2017-11-30T09:54:35.615Z,3.71
2017-11-30T09:55:39.798Z,3.81
2017-11-30T09:56:44.026Z,3.91
2017-11-30T09:57:48.592Z,3.94
2017-11-30T09:58:52.865Z,3.99
2017-11-30T09:59:57.142Z,3.95
2017-11-30T10:01:02.278Z,3.86
2017-11-30T10:02:06.452Z,3.67
2017-11-30T10:03:10.618Z,3.59
2017-11-30T10:04:14.939Z,3.59
2017-11-30T10:05:19.123Z,3.54
2017-11-30T10:06:23.448Z,3.58
2017-11-30T10:07:27.564Z,3.62
2017-11-30T10:08:31.745Z,3.53
2017-11-30T10:09:36.701Z,3.57
2017-11-30T10:10:40.900Z,3.38
2017-11-30T10:11:45.054Z,3.34
2017-11-30T10:12:49.238Z,3.32
2017-11-30T10:13:53.432Z,3.38
2017-11-30T10:14:57.690Z,3.51
2017-11-30T10:16:02.616Z,3.52
2017-11-30T10:17:08.004Z,3.40
2017-11-30T10:18:12.187Z,3.36
2017-11-30T10:19:16.439Z,3.39
2017-11-30T10:20:20.951Z,3.38
2017-11-30T10:21:25.060Z,3.35
2017-11-30T10:22:29.215Z,3.36
2017-11-30T10:23:34.066Z,3.38
2017-11-30T10:24:38.283Z,3.32
2017-11-30T10:25:42.738Z,3.36
2017-11-30T10:26:46.960Z,3.27
2017-11-30T10:27:51.257Z,3.25
2017-11-30T10:28:55.470Z,3.26
2017-11-30T10:29:59.683Z,3.25
2017-11-30T10:31:05.079Z,3.22
2017-11-30T10:32:09.606Z,3.21
2017-11-30T10:33:13.728Z,3.27
2017-11-30T10:34:17.917Z,3.31
2017-11-30T10:35:22.214Z,3.39
2017-11-30T10:36:26.436Z,3.36
2017-11-30T10:37:30.643Z,3.29
2017-11-30T10:38:35.145Z,3.33
2017-11-30T10:39:39.344Z,3.31
2017-11-30T10:40:43.602Z,3.32
2017-11-30T10:41:47.784Z,3.49
2017-11-30T10:42:53.010Z,3.37
2017-11-30T10:43:57.214Z,3.26
2017-11-30T10:45:04.039Z,3.21
2017-11-30T10:46:08.586Z,3.16
2017-11-30T10:47:12.892Z,3.05
2017-11-30T10:48:17.083Z,3.03
2017-11-30T10:49:21.353Z,3.05
2017-11-30T10:50:25.612Z,3.03
2017-11-30T10:51:30.047Z,3.05
2017-11-30T10:52:34.864Z,3.07
2017-11-30T10:53:39.060Z,3.04
2017-11-30T10:54:43.267Z,3.15
2017-11-30T10:55:47.431Z,3.11
2017-11-30T10:56:51.580Z,3.08
2017-11-30T10:57:56.172Z,3.13
2017-11-30T10:59:00.378Z,3.17
2017-11-30T11:00:06.675Z,3.25
2017-11-30T11:01:11.325Z,3.46
2017-11-30T11:02:15.890Z,3.53
2017-11-30T11:03:20.198Z,3.55
2017-11-30T11:04:24.758Z,3.38
2017-11-30T11:05:29.155Z,3.29
2017-11-30T11:06:33.382Z,3.30
2017-11-30T11:07:37.749Z,3.25
2017-11-30T11:08:41.987Z,3.26
2017-11-30T11:09:46.284Z,3.20
2017-11-30T11:10:50.822Z,3.12
2017-11-30T11:11:55.124Z,3.06
2017-11-30T11:12:59.373Z,3.14
2017-11-30T11:14:04.299Z,3.25
2017-11-30T11:15:08.507Z,3.38
2017-11-30T11:16:13.165Z,3.28
2017-11-30T11:17:17.782Z,3.21
2017-11-30T11:18:22.261Z,3.18
2017-11-30T11:19:26.664Z,3.20
2017-11-30T11:20:31.074Z,3.24
2017-11-30T11:21:35.634Z,3.10
2017-11-30T11:22:39.780Z,3.04
2017-11-30T11:23:44.384Z,3.06
2017-11-30T11:24:48.594Z,3.20
2017-11-30T11:25:52.782Z,3.20
2017-11-30T11:26:57.011Z,3.29
2017-11-30T11:28:01.222Z,3.37
2017-11-30T11:29:05.596Z,3.40
2017-11-30T11:30:10.193Z,3.35
2017-11-30T11:31:14.413Z,3.30
2017-11-30T11:32:18.682Z,3.32
2017-11-30T11:33:22.947Z,3.26
2017-11-30T11:34:27.297Z,3.55
2017-11-30T11:35:32.336Z,3.65
2017-11-30T11:36:36.868Z,3.70
2017-11-30T11:37:41.053Z,3.67
2017-11-30T11:38:45.180Z,3.97
2017-11-30T11:39:49.416Z,3.91
2017-11-30T11:40:53.735Z,3.91
2017-11-30T11:41:58.084Z,3.81
2017-11-30T11:43:03.255Z,3.77
2017-11-30T11:44:07.449Z,3.86
2017-11-30T11:45:13.724Z,3.89
2017-11-30T11:46:18.014Z,3.92
2017-11-30T11:47:22.297Z,3.88
2017-11-30T11:48:26.606Z,3.82
2017-11-30T11:49:30.871Z,3.93
2017-11-30T11:50:35.169Z,4.08
2017-11-30T11:51:39.462Z,4.31
2017-11-30T11:52:43.796Z,4.28
2017-11-30T11:53:48.027Z,4.12
2017-11-30T11:54:52.384Z,4.02
2017-11-30T11:55:56.690Z,4.17
2017-11-30T11:57:01.542Z,4.02
2017-11-30T11:58:05.731Z,3.99
2017-11-30T11:59:09.987Z,4.14
2017-11-30T12:00:16.871Z,4.30
2017-11-30T12:01:21.442Z,4.13
2017-11-30T12:02:25.790Z,3.96
2017-11-30T12:03:30.007Z,3.89
2017-11-30T12:04:34.236Z,3.83
2017-11-30T12:05:38.432Z,3.78
2017-11-30T12:06:42.977Z,3.77
2017-11-30T12:07:47.411Z,3.74
2017-11-30T12:08:51.559Z,3.90
2017-11-30T12:09:55.814Z,3.98
2017-11-30T12:10:59.976Z,4.03
2017-11-30T12:12:04.205Z,3.95
2017-11-30T12:13:09.016Z,3.86
2017-11-30T12:14:13.522Z,3.91
2017-11-30T12:15:17.774Z,3.93
2017-11-30T12:16:22.327Z,4.05
2017-11-30T12:17:26.470Z,3.96
2017-11-30T12:18:30.648Z,3.94
2017-11-30T12:19:35.158Z,3.83
2017-11-30T12:20:39.340Z,3.63
2017-11-30T12:21:43.584Z,3.73
2017-11-30T12:22:47.732Z,3.78
2017-11-30T12:23:51.952Z,3.94
2017-11-30T12:24:56.142Z,3.90
2017-11-30T12:26:01.558Z,3.93
2017-11-30T12:27:05.718Z,3.83
2017-11-30T12:28:09.992Z,3.73
2017-11-30T12:29:14.496Z,3.63
2017-11-30T12:30:18.784Z,3.54
2017-11-30T12:31:23.243Z,3.62
2017-11-30T12:32:27.773Z,3.64
2017-11-30T12:33:32.773Z,3.71
2017-11-30T12:34:37.087Z,3.83
2017-11-30T12:35:41.392Z,3.96
2017-11-30T12:36:45.590Z,3.84
2017-11-30T12:37:49.771Z,4.02
2017-11-30T12:38:53.942Z,4.20
2017-11-30T12:39:58.174Z,4.27
2017-11-30T12:41:03.470Z,4.24
2017-11-30T12:42:07.822Z,4.24
2017-11-30T12:43:12.520Z,4.07
2017-11-30T12:44:16.756Z,4.19
2017-11-30T12:45:21.325Z,4.27
2017-11-30T12:46:25.619Z,4.38
2017-11-30T12:47:29.863Z,4.30
2017-11-30T12:48:35.112Z,4.14
2017-11-30T12:49:39.724Z,4.14
2017-11-30T12:50:43.918Z,4.25
2017-11-30T12:51:48.274Z,4.27
2017-11-30T12:52:52.533Z,4.23
2017-11-30T12:53:56.747Z,4.13
2017-11-30T12:55:01.054Z,4.04
2017-11-30T12:56:06.795Z,3.88
2017-11-30T12:57:11.063Z,3.79
2017-11-30T12:58:15.345Z,3.86
2017-11-30T12:59:19.574Z,4.06
2017-11-30T13:00:23.974Z,3.99
2017-11-30T13:01:28.439Z,3.88
2017-11-30T13:02:32.720Z,3.86
2017-11-30T13:03:37.044Z,3.89
2017-11-30T13:04:41.364Z,3.93
2017-11-30T13:05:45.791Z,3.88
2017-11-30T13:06:50.033Z,3.91
2017-11-30T13:07:54.320Z,3.84
2017-11-30T13:08:58.923Z,3.88
2017-11-30T13:10:03.251Z,3.85
2017-11-30T13:11:07.557Z,3.82
2017-11-30T13:12:11.803Z,3.90
2017-11-30T13:13:16.063Z,3.87
2017-11-30T13:14:20.341Z,3.71
2017-11-30T13:15:24.876Z,3.64
2017-11-30T13:16:29.072Z,3.66
2017-11-30T13:17:34.290Z,3.66
2017-11-30T13:18:38.682Z,3.73
2017-11-30T13:19:43.241Z,3.93
2017-11-30T13:20:47.505Z,3.98
2017-11-30T13:21:51.795Z,3.94
2017-11-30T13:22:56.158Z,4.00
2017-11-30T13:24:00.420Z,3.98
2017-11-30T13:25:05.514Z,3.93
2017-11-30T13:26:10.141Z,4.07
2017-11-30T13:27:14.425Z,4.14
2017-11-30T13:28:18.719Z,4.03
2017-11-30T13:29:22.947Z,4.00
2017-11-30T13:30:27.281Z,3.95
2017-11-30T13:31:32.374Z,3.97
2017-11-30T13:32:36.990Z,4.01
2017-11-30T13:33:41.524Z,3.92
2017-11-30T13:34:45.797Z,3.91
2017-11-30T13:35:50.111Z,3.98
2017-11-30T13:36:54.362Z,4.10
2017-11-30T13:37:58.882Z,4.10
2017-11-30T13:39:04.274Z,4.13
2017-11-30T13:40:08.554Z,4.12
2017-11-30T13:41:12.753Z,4.30
2017-11-30T13:42:17.048Z,4.09
2017-11-30T13:43:21.348Z,4.04
2017-11-30T13:44:25.607Z,3.95
2017-11-30T13:45:30.330Z,4.00
2017-11-30T13:46:34.764Z,4.00
2017-11-30T13:47:38.946Z,4.13
2017-11-30T13:48:43.160Z,4.05
2017-11-30T13:49:47.631Z,4.00
2017-11-30T13:50:51.813Z,4.03
2017-11-30T13:51:56.130Z,4.07
2017-11-30T13:53:00.412Z,3.93
2017-11-30T13:54:05.957Z,3.92
2017-11-30T13:55:10.238Z,3.90
2017-11-30T13:56:14.875Z,3.83
2017-11-30T13:57:19.113Z,3.68
2017-11-30T13:58:23.500Z,3.65
2017-11-30T13:59:27.654Z,3.68
2017-11-30T14:00:32.271Z,3.68
2017-11-30T14:01:36.555Z,3.86
2017-11-30T14:02:40.810Z,3.77
2017-11-30T14:03:45.027Z,3.70
2017-11-30T14:04:49.306Z,3.83
2017-11-30T14:05:53.507Z,3.72
2017-11-30T14:06:57.750Z,3.65
2017-11-30T14:08:02.566Z,3.58
2017-11-30T14:09:10.061Z,3.66
2017-11-30T14:10:14.307Z,3.72
2017-11-30T14:11:18.484Z,3.80
2017-11-30T14:12:23.499Z,3.83
2017-11-30T14:13:28.135Z,3.75
2017-11-30T14:14:35.319Z,3.68
2017-11-30T14:15:39.430Z,3.60
2017-11-30T14:16:43.649Z,3.60
2017-11-30T14:17:47.955Z,3.60
2017-11-30T14:18:52.097Z,3.54
2017-11-30T14:20:01.743Z,3.55
2017-11-30T14:21:05.975Z,3.49
2017-11-30T14:22:10.355Z,3.48
2017-11-30T14:23:14.565Z,3.60
2017-11-30T14:24:18.801Z,3.58
2017-11-30T14:25:23.177Z,3.55
2017-11-30T14:26:27.442Z,3.57
2017-11-30T14:27:32.617Z,3.71
2017-11-30T14:28:36.862Z,3.72
2017-11-30T14:29:41.041Z,3.73
2017-11-30T14:30:45.485Z,3.65
2017-11-30T14:31:49.772Z,3.80
2017-11-30T14:32:53.994Z,3.90
2017-11-30T14:33:58.200Z,3.93
2017-11-30T14:35:03.546Z,3.83
2017-11-30T14:36:07.777Z,3.79
2017-11-30T14:37:12.403Z,3.75
2017-11-30T14:38:16.617Z,3.68
2017-11-30T14:39:20.813Z,3.63
2017-11-30T14:40:25.113Z,3.74
2017-11-30T14:41:29.371Z,3.71
2017-11-30T14:42:34.230Z,3.68
2017-11-30T14:43:38.487Z,3.66
2017-11-30T14:44:43.181Z,3.68
2017-11-30T14:45:47.529Z,3.75
2017-11-30T14:46:51.718Z,3.80